sensor_id;sensor_type;location;lat;lon;timestamp;P1;durP1;ratioP1;P2;durP2;ratioP2
68886;SDS011;55925;51.764;6.402;2023-03-01T00:00:40;12.73;;;6.60;;
68886;SDS011;55925;51.764;6.402;2023-03-01T00:03:11;11.77;;;6.60;;
68886;SDS011;55925;51.764;6.402;2023-03-01T00:05:43;13.73;;;6.15;;
68886;SDS011;55925;51.764;6.402;2023-03-01T00:08:09;13.48;;;6.53;;
68886;SDS011;55925;51.764;6.402;2023-03-01T00:10:35;21.98;;;9.00;;
68886;SDS011;55925;51.764;6.402;2023-03-01T00:13:01;14.25;;;6.93;;
68886;SDS011;55925;51.764;6.402;2023-03-01T00:15:27;13.00;;;6.28;;
68886;SDS011;55925;51.764;6.402;2023-03-01T00:17:53;12.82;;;6.85;;
68886;SDS011;55925;51.764;6.402;2023-03-01T00:20:19;13.90;;;7.35;;
68886;SDS011;55925;51.764;6.402;2023-03-01T00:22:45;12.48;;;5.78;;
68886;SDS011;55925;51.764;6.402;2023-03-01T00:25:11;14.13;;;7.10;;
68886;SDS011;55925;51.764;6.402;2023-03-01T00:30:03;11.70;;;5.93;;
68886;SDS011;55925;51.764;6.402;2023-03-01T00:32:30;11.27;;;5.97;;
68886;SDS011;55925;51.764;6.402;2023-03-01T00:34:56;10.98;;;6.10;;
68886;SDS011;55925;51.764;6.402;2023-03-01T00:37:22;12.45;;;6.30;;
68886;SDS011;55925;51.764;6.402;2023-03-01T00:39:49;14.45;;;6.30;;
68886;SDS011;55925;51.764;6.402;2023-03-01T00:42:15;14.02;;;7.32;;
68886;SDS011;55925;51.764;6.402;2023-03-01T00:44:42;12.15;;;5.72;;
68886;SDS011;55925;51.764;6.402;2023-03-01T00:47:08;15.32;;;6.47;;
68886;SDS011;55925;51.764;6.402;2023-03-01T00:49:34;13.43;;;6.50;;
68886;SDS011;55925;51.764;6.402;2023-03-01T00:52:00;13.88;;;6.05;;
68886;SDS011;55925;51.764;6.402;2023-03-01T00:54:26;11.40;;;6.18;;
68886;SDS011;55925;51.764;6.402;2023-03-01T00:56:52;15.85;;;6.90;;
68886;SDS011;55925;51.764;6.402;2023-03-01T00:59:18;14.75;;;6.78;;
68886;SDS011;55925;51.764;6.402;2023-03-01T01:01:44;12.85;;;6.50;;
68886;SDS011;55925;51.764;6.402;2023-03-01T01:04:11;13.25;;;6.50;;
68886;SDS011;55925;51.764;6.402;2023-03-01T01:06:42;13.32;;;6.50;;
68886;SDS011;55925;51.764;6.402;2023-03-01T01:09:08;14.30;;;6.35;;
68886;SDS011;55925;51.764;6.402;2023-03-01T01:11:42;13.50;;;6.40;;
68886;SDS011;55925;51.764;6.402;2023-03-01T01:14:08;15.10;;;6.65;;
68886;SDS011;55925;51.764;6.402;2023-03-01T01:16:34;15.57;;;6.90;;
68886;SDS011;55925;51.764;6.402;2023-03-01T01:19:00;15.77;;;6.60;;
68886;SDS011;55925;51.764;6.402;2023-03-01T01:21:26;11.30;;;5.72;;
68886;SDS011;55925;51.764;6.402;2023-03-01T01:23:52;16.75;;;6.85;;
68886;SDS011;55925;51.764;6.402;2023-03-01T01:26:19;11.38;;;6.53;;
68886;SDS011;55925;51.764;6.402;2023-03-01T01:28:46;13.00;;;6.55;;
68886;SDS011;55925;51.764;6.402;2023-03-01T01:31:12;14.20;;;6.85;;
68886;SDS011;55925;51.764;6.402;2023-03-01T01:33:38;13.00;;;6.68;;
68886;SDS011;55925;51.764;6.402;2023-03-01T01:36:05;14.80;;;7.13;;
68886;SDS011;55925;51.764;6.402;2023-03-01T01:38:31;12.07;;;6.53;;
68886;SDS011;55925;51.764;6.402;2023-03-01T01:40:58;13.60;;;7.25;;
68886;SDS011;55925;51.764;6.402;2023-03-01T01:45:50;12.30;;;6.88;;
68886;SDS011;55925;51.764;6.402;2023-03-01T01:48:18;14.30;;;7.32;;
68886;SDS011;55925;51.764;6.402;2023-03-01T01:50:45;11.80;;;6.43;;
68886;SDS011;55925;51.764;6.402;2023-03-01T01:53:17;14.85;;;6.97;;
68886;SDS011;55925;51.764;6.402;2023-03-01T01:55:47;15.95;;;6.10;;
68886;SDS011;55925;51.764;6.402;2023-03-01T01:58:15;13.38;;;7.57;;
68886;SDS011;55925;51.764;6.402;2023-03-01T02:00:42;13.35;;;6.82;;
68886;SDS011;55925;51.764;6.402;2023-03-01T02:03:10;12.93;;;7.25;;
68886;SDS011;55925;51.764;6.402;2023-03-01T02:08:02;18.15;;;7.93;;
68886;SDS011;55925;51.764;6.402;2023-03-01T02:10:28;15.35;;;7.10;;
68886;SDS011;55925;51.764;6.402;2023-03-01T02:12:55;13.40;;;6.80;;
68886;SDS011;55925;51.764;6.402;2023-03-01T02:36:10;13.90;;;6.30;;
68886;SDS011;55925;51.764;6.402;2023-03-01T02:38:38;13.80;;;6.40;;
68886;SDS011;55925;51.764;6.402;2023-03-01T02:41:04;14.35;;;6.90;;
68886;SDS011;55925;51.764;6.402;2023-03-01T02:43:32;11.95;;;5.85;;
68886;SDS011;55925;51.764;6.402;2023-03-01T02:45:59;11.40;;;5.82;;
68886;SDS011;55925;51.764;6.402;2023-03-01T02:48:37;15.70;;;6.80;;
68886;SDS011;55925;51.764;6.402;2023-03-01T02:51:05;15.80;;;6.78;;
68886;SDS011;55925;51.764;6.402;2023-03-01T02:53:53;12.18;;;6.00;;
68886;SDS011;55925;51.764;6.402;2023-03-01T02:56:22;12.02;;;6.63;;
68886;SDS011;55925;51.764;6.402;2023-03-01T03:01:17;11.98;;;5.80;;
68886;SDS011;55925;51.764;6.402;2023-03-01T03:03:43;13.20;;;6.43;;
68886;SDS011;55925;51.764;6.402;2023-03-01T03:06:09;12.55;;;6.40;;
68886;SDS011;55925;51.764;6.402;2023-03-01T03:08:35;14.30;;;6.32;;
68886;SDS011;55925;51.764;6.402;2023-03-01T03:11:01;12.30;;;6.10;;
68886;SDS011;55925;51.764;6.402;2023-03-01T03:13:27;11.88;;;5.85;;
68886;SDS011;55925;51.764;6.402;2023-03-01T03:18:19;13.55;;;5.82;;
68886;SDS011;55925;51.764;6.402;2023-03-01T03:23:11;11.73;;;5.90;;
68886;SDS011;55925;51.764;6.402;2023-03-01T03:25:37;13.38;;;5.57;;
68886;SDS011;55925;51.764;6.402;2023-03-01T03:28:04;14.50;;;5.80;;
68886;SDS011;55925;51.764;6.402;2023-03-01T03:30:34;13.23;;;6.22;;
68886;SDS011;55925;51.764;6.402;2023-03-01T03:33:01;14.27;;;5.60;;
68886;SDS011;55925;51.764;6.402;2023-03-01T03:35:32;14.27;;;6.30;;
68886;SDS011;55925;51.764;6.402;2023-03-01T03:37:59;14.48;;;6.70;;
68886;SDS011;55925;51.764;6.402;2023-03-01T03:40:38;12.50;;;5.93;;
68886;SDS011;55925;51.764;6.402;2023-03-01T03:43:05;14.02;;;7.63;;
68886;SDS011;55925;51.764;6.402;2023-03-01T03:45:32;13.30;;;6.20;;
68886;SDS011;55925;51.764;6.402;2023-03-01T03:47:58;13.48;;;6.30;;
68886;SDS011;55925;51.764;6.402;2023-03-01T03:50:25;13.55;;;6.40;;
68886;SDS011;55925;51.764;6.402;2023-03-01T03:52:51;13.50;;;5.95;;
68886;SDS011;55925;51.764;6.402;2023-03-01T03:55:17;12.77;;;6.43;;
68886;SDS011;55925;51.764;6.402;2023-03-01T03:57:44;13.80;;;6.15;;
68886;SDS011;55925;51.764;6.402;2023-03-01T04:00:16;15.15;;;6.78;;
68886;SDS011;55925;51.764;6.402;2023-03-01T04:02:43;13.57;;;6.80;;
68886;SDS011;55925;51.764;6.402;2023-03-01T04:07:35;16.73;;;6.68;;
68886;SDS011;55925;51.764;6.402;2023-03-01T04:10:02;15.55;;;7.03;;
68886;SDS011;55925;51.764;6.402;2023-03-01T04:12:28;11.43;;;6.13;;
68886;SDS011;55925;51.764;6.402;2023-03-01T04:14:54;13.38;;;6.35;;
68886;SDS011;55925;51.764;6.402;2023-03-01T04:19:46;12.55;;;6.35;;
68886;SDS011;55925;51.764;6.402;2023-03-01T04:22:14;16.73;;;6.32;;
68886;SDS011;55925;51.764;6.402;2023-03-01T04:24:46;14.40;;;6.45;;
68886;SDS011;55925;51.764;6.402;2023-03-01T04:27:12;15.57;;;6.50;;
68886;SDS011;55925;51.764;6.402;2023-03-01T04:32:04;14.40;;;6.53;;
68886;SDS011;55925;51.764;6.402;2023-03-01T04:34:30;12.57;;;6.75;;
68886;SDS011;55925;51.764;6.402;2023-03-01T04:39:22;11.68;;;6.10;;
68886;SDS011;55925;51.764;6.402;2023-03-01T04:41:48;15.63;;;7.25;;
68886;SDS011;55925;51.764;6.402;2023-03-01T04:46:40;13.70;;;6.22;;
68886;SDS011;55925;51.764;6.402;2023-03-01T04:51:32;13.23;;;6.13;;
68886;SDS011;55925;51.764;6.402;2023-03-01T04:53:58;13.93;;;6.50;;
68886;SDS011;55925;51.764;6.402;2023-03-01T04:56:25;12.18;;;6.78;;
68886;SDS011;55925;51.764;6.402;2023-03-01T04:58:53;13.05;;;6.78;;
68886;SDS011;55925;51.764;6.402;2023-03-01T05:01:20;12.98;;;6.68;;
68886;SDS011;55925;51.764;6.402;2023-03-01T05:03:47;12.85;;;6.85;;
68886;SDS011;55925;51.764;6.402;2023-03-01T05:06:14;13.30;;;6.00;;
68886;SDS011;55925;51.764;6.402;2023-03-01T05:08:40;15.70;;;6.95;;
68886;SDS011;55925;51.764;6.402;2023-03-01T05:11:07;12.15;;;6.18;;
68886;SDS011;55925;51.764;6.402;2023-03-01T05:13:34;13.25;;;7.13;;
68886;SDS011;55925;51.764;6.402;2023-03-01T05:16:01;13.48;;;6.28;;
68886;SDS011;55925;51.764;6.402;2023-03-01T05:18:28;12.90;;;5.78;;
68886;SDS011;55925;51.764;6.402;2023-03-01T05:20:55;16.95;;;7.18;;
68886;SDS011;55925;51.764;6.402;2023-03-01T05:23:23;14.93;;;7.55;;
68886;SDS011;55925;51.764;6.402;2023-03-01T05:25:50;13.23;;;6.72;;
68886;SDS011;55925;51.764;6.402;2023-03-01T05:28:17;12.10;;;6.88;;
68886;SDS011;55925;51.764;6.402;2023-03-01T05:30:44;14.40;;;6.85;;
68886;SDS011;55925;51.764;6.402;2023-03-01T05:33:10;12.63;;;6.45;;
68886;SDS011;55925;51.764;6.402;2023-03-01T05:35:39;13.48;;;6.90;;
68886;SDS011;55925;51.764;6.402;2023-03-01T05:38:06;12.05;;;7.03;;
68886;SDS011;55925;51.764;6.402;2023-03-01T05:42:58;12.77;;;6.53;;
68886;SDS011;55925;51.764;6.402;2023-03-01T05:45:26;11.52;;;6.15;;
68886;SDS011;55925;51.764;6.402;2023-03-01T05:47:52;12.45;;;6.97;;
68886;SDS011;55925;51.764;6.402;2023-03-01T05:50:26;13.23;;;6.65;;
68886;SDS011;55925;51.764;6.402;2023-03-01T05:52:57;16.20;;;7.03;;
68886;SDS011;55925;51.764;6.402;2023-03-01T05:55:24;11.88;;;6.50;;
68886;SDS011;55925;51.764;6.402;2023-03-01T05:57:50;14.77;;;7.82;;
68886;SDS011;55925;51.764;6.402;2023-03-01T06:02:42;13.38;;;6.63;;
68886;SDS011;55925;51.764;6.402;2023-03-01T06:05:08;12.30;;;6.60;;
68886;SDS011;55925;51.764;6.402;2023-03-01T06:07:35;14.38;;;6.68;;
68886;SDS011;55925;51.764;6.402;2023-03-01T06:10:02;13.30;;;6.63;;
68886;SDS011;55925;51.764;6.402;2023-03-01T06:12:32;14.43;;;7.15;;
68886;SDS011;55925;51.764;6.402;2023-03-01T06:14:58;14.77;;;6.68;;
68886;SDS011;55925;51.764;6.402;2023-03-01T06:17:24;12.55;;;6.50;;
68886;SDS011;55925;51.764;6.402;2023-03-01T06:22:16;12.00;;;6.43;;
68886;SDS011;55925;51.764;6.402;2023-03-01T06:27:08;15.02;;;6.75;;
68886;SDS011;55925;51.764;6.402;2023-03-01T06:32:00;11.63;;;6.05;;
68886;SDS011;55925;51.764;6.402;2023-03-01T06:34:26;14.57;;;6.95;;
68886;SDS011;55925;51.764;6.402;2023-03-01T06:39:18;14.60;;;6.85;;
68886;SDS011;55925;51.764;6.402;2023-03-01T06:44:09;12.43;;;6.53;;
68886;SDS011;55925;51.764;6.402;2023-03-01T06:49:01;10.75;;;6.43;;
68886;SDS011;55925;51.764;6.402;2023-03-01T06:51:32;19.75;;;7.13;;
68886;SDS011;55925;51.764;6.402;2023-03-01T06:56:24;16.33;;;7.22;;
68886;SDS011;55925;51.764;6.402;2023-03-01T07:01:16;16.83;;;7.55;;
68886;SDS011;55925;51.764;6.402;2023-03-01T07:06:09;13.57;;;7.22;;
68886;SDS011;55925;51.764;6.402;2023-03-01T07:08:35;13.60;;;7.38;;
68886;SDS011;55925;51.764;6.402;2023-03-01T07:11:01;14.82;;;7.82;;
68886;SDS011;55925;51.764;6.402;2023-03-01T07:13:28;14.27;;;6.55;;
68886;SDS011;55925;51.764;6.402;2023-03-01T07:18:20;12.85;;;7.10;;
68886;SDS011;55925;51.764;6.402;2023-03-01T07:23:12;14.80;;;6.47;;
68886;SDS011;55925;51.764;6.402;2023-03-01T07:28:04;16.15;;;6.75;;
68886;SDS011;55925;51.764;6.402;2023-03-01T07:32:57;12.18;;;5.53;;
68886;SDS011;55925;51.764;6.402;2023-03-01T07:35:24;16.23;;;6.82;;
68886;SDS011;55925;51.764;6.402;2023-03-01T07:37:51;13.98;;;7.25;;
68886;SDS011;55925;51.764;6.402;2023-03-01T07:40:17;13.30;;;7.20;;
68886;SDS011;55925;51.764;6.402;2023-03-01T07:42:43;14.35;;;6.80;;
68886;SDS011;55925;51.764;6.402;2023-03-01T07:45:09;14.90;;;6.95;;
68886;SDS011;55925;51.764;6.402;2023-03-01T07:47:35;13.13;;;6.18;;
68886;SDS011;55925;51.764;6.402;2023-03-01T07:50:02;16.08;;;7.13;;
68886;SDS011;55925;51.764;6.402;2023-03-01T07:52:28;14.48;;;7.05;;
68886;SDS011;55925;51.764;6.402;2023-03-01T07:54:55;14.70;;;7.18;;
68886;SDS011;55925;51.764;6.402;2023-03-01T07:57:21;13.73;;;5.78;;
68886;SDS011;55925;51.764;6.402;2023-03-01T07:59:47;13.73;;;7.07;;
68886;SDS011;55925;51.764;6.402;2023-03-01T08:02:13;12.93;;;6.22;;
68886;SDS011;55925;51.764;6.402;2023-03-01T08:04:40;12.27;;;6.65;;
68886;SDS011;55925;51.764;6.402;2023-03-01T08:07:06;14.85;;;6.53;;
68886;SDS011;55925;51.764;6.402;2023-03-01T08:09:34;12.88;;;7.07;;
68886;SDS011;55925;51.764;6.402;2023-03-01T08:12:00;15.77;;;7.13;;
68886;SDS011;55925;51.764;6.402;2023-03-01T08:14:26;11.85;;;6.78;;
68886;SDS011;55925;51.764;6.402;2023-03-01T08:16:52;12.63;;;6.70;;
68886;SDS011;55925;51.764;6.402;2023-03-01T08:19:19;11.73;;;6.13;;
68886;SDS011;55925;51.764;6.402;2023-03-01T08:21:45;13.68;;;6.45;;
68886;SDS011;55925;51.764;6.402;2023-03-01T08:24:11;13.18;;;6.35;;
68886;SDS011;55925;51.764;6.402;2023-03-01T08:26:37;13.15;;;6.30;;
68886;SDS011;55925;51.764;6.402;2023-03-01T08:29:04;13.82;;;6.90;;
68886;SDS011;55925;51.764;6.402;2023-03-01T08:31:34;11.40;;;6.32;;
68886;SDS011;55925;51.764;6.402;2023-03-01T08:34:02;13.27;;;6.57;;
68886;SDS011;55925;51.764;6.402;2023-03-01T08:36:32;10.80;;;5.78;;
68886;SDS011;55925;51.764;6.402;2023-03-01T08:38:59;14.40;;;7.05;;
68886;SDS011;55925;51.764;6.402;2023-03-01T08:41:25;11.00;;;5.50;;
68886;SDS011;55925;51.764;6.402;2023-03-01T08:43:51;13.73;;;6.45;;
68886;SDS011;55925;51.764;6.402;2023-03-01T08:46:17;12.45;;;7.25;;
68886;SDS011;55925;51.764;6.402;2023-03-01T08:48:44;13.85;;;6.47;;
68886;SDS011;55925;51.764;6.402;2023-03-01T08:51:11;12.00;;;6.15;;
68886;SDS011;55925;51.764;6.402;2023-03-01T08:53:37;12.18;;;5.80;;
68886;SDS011;55925;51.764;6.402;2023-03-01T08:56:03;10.18;;;5.90;;
68886;SDS011;55925;51.764;6.402;2023-03-01T08:58:30;12.45;;;6.13;;
68886;SDS011;55925;51.764;6.402;2023-03-01T09:00:56;11.38;;;6.05;;
68886;SDS011;55925;51.764;6.402;2023-03-01T09:03:22;14.98;;;6.20;;
68886;SDS011;55925;51.764;6.402;2023-03-01T09:05:48;12.90;;;5.32;;
68886;SDS011;55925;51.764;6.402;2023-03-01T09:08:15;17.17;;;6.22;;
68886;SDS011;55925;51.764;6.402;2023-03-01T09:10:41;12.77;;;6.05;;
68886;SDS011;55925;51.764;6.402;2023-03-01T09:13:07;10.63;;;4.88;;
68886;SDS011;55925;51.764;6.402;2023-03-01T09:15:33;12.32;;;5.97;;
68886;SDS011;55925;51.764;6.402;2023-03-01T09:17:59;11.93;;;5.72;;
68886;SDS011;55925;51.764;6.402;2023-03-01T09:20:26;13.93;;;5.45;;
68886;SDS011;55925;51.764;6.402;2023-03-01T09:22:52;10.40;;;5.57;;
68886;SDS011;55925;51.764;6.402;2023-03-01T09:25:18;14.20;;;5.65;;
68886;SDS011;55925;51.764;6.402;2023-03-01T09:27:44;12.90;;;6.00;;
68886;SDS011;55925;51.764;6.402;2023-03-01T09:30:10;14.23;;;6.07;;
68886;SDS011;55925;51.764;6.402;2023-03-01T09:32:36;13.85;;;6.03;;
68886;SDS011;55925;51.764;6.402;2023-03-01T09:35:02;10.95;;;5.78;;
68886;SDS011;55925;51.764;6.402;2023-03-01T09:37:32;11.77;;;5.90;;
68886;SDS011;55925;51.764;6.402;2023-03-01T09:39:58;11.45;;;6.20;;
68886;SDS011;55925;51.764;6.402;2023-03-01T09:42:24;17.13;;;6.03;;
68886;SDS011;55925;51.764;6.402;2023-03-01T09:45:51;12.38;;;5.40;;
68886;SDS011;55925;51.764;6.402;2023-03-01T09:47:46;12.57;;;5.15;;
68886;SDS011;55925;51.764;6.402;2023-03-01T09:50:17;12.85;;;5.68;;
68886;SDS011;55925;51.764;6.402;2023-03-01T09:55:11;11.52;;;5.60;;
68886;SDS011;55925;51.764;6.402;2023-03-01T10:00:09;10.57;;;5.38;;
68886;SDS011;55925;51.764;6.402;2023-03-01T10:02:39;9.90;;;4.93;;
68886;SDS011;55925;51.764;6.402;2023-03-01T10:08:00;10.15;;;4.93;;
68886;SDS011;55925;51.764;6.402;2023-03-01T10:10:35;9.48;;;4.72;;
68886;SDS011;55925;51.764;6.402;2023-03-01T10:13:04;11.55;;;5.55;;
68886;SDS011;55925;51.764;6.402;2023-03-01T10:15:35;10.40;;;5.05;;
68886;SDS011;55925;51.764;6.402;2023-03-01T10:18:09;8.63;;;5.15;;
68886;SDS011;55925;51.764;6.402;2023-03-01T10:20:42;11.48;;;5.10;;
68886;SDS011;55925;51.764;6.402;2023-03-01T10:23:09;10.10;;;4.60;;
68886;SDS011;55925;51.764;6.402;2023-03-01T10:28:31;10.45;;;5.28;;
68886;SDS011;55925;51.764;6.402;2023-03-01T10:30:59;9.88;;;5.60;;
68886;SDS011;55925;51.764;6.402;2023-03-01T10:33:32;11.10;;;5.25;;
68886;SDS011;55925;51.764;6.402;2023-03-01T10:35:58;11.68;;;5.50;;
68886;SDS011;55925;51.764;6.402;2023-03-01T10:38:24;10.52;;;5.10;;
68886;SDS011;55925;51.764;6.402;2023-03-01T10:40:54;9.93;;;5.00;;
68886;SDS011;55925;51.764;6.402;2023-03-01T10:43:22;9.13;;;4.97;;
68886;SDS011;55925;51.764;6.402;2023-03-01T10:45:48;11.60;;;4.85;;
68886;SDS011;55925;51.764;6.402;2023-03-01T10:48:22;9.95;;;5.20;;
68886;SDS011;55925;51.764;6.402;2023-03-01T10:53:30;8.68;;;4.70;;
68886;SDS011;55925;51.764;6.402;2023-03-01T10:56:02;11.80;;;5.07;;
68886;SDS011;55925;51.764;6.402;2023-03-01T10:58:29;10.55;;;4.85;;
68886;SDS011;55925;51.764;6.402;2023-03-01T11:03:29;10.73;;;4.80;;
68886;SDS011;55925;51.764;6.402;2023-03-01T11:11:04;9.23;;;4.35;;
68886;SDS011;55925;51.764;6.402;2023-03-01T11:13:30;9.73;;;4.60;;
68886;SDS011;55925;51.764;6.402;2023-03-01T11:16:06;8.35;;;4.07;;
68886;SDS011;55925;51.764;6.402;2023-03-01T11:18:33;10.90;;;4.38;;
68886;SDS011;55925;51.764;6.402;2023-03-01T11:20:59;6.75;;;3.45;;
68886;SDS011;55925;51.764;6.402;2023-03-01T11:23:27;11.00;;;5.32;;
68886;SDS011;55925;51.764;6.402;2023-03-01T11:25:55;10.98;;;4.03;;
68886;SDS011;55925;51.764;6.402;2023-03-01T11:28:21;10.18;;;4.35;;
68886;SDS011;55925;51.764;6.402;2023-03-01T11:33:34;10.18;;;3.88;;
68886;SDS011;55925;51.764;6.402;2023-03-01T11:36:05;8.77;;;4.35;;
68886;SDS011;55925;51.764;6.402;2023-03-01T11:38:34;12.25;;;5.00;;
68886;SDS011;55925;51.764;6.402;2023-03-01T11:43:52;12.20;;;5.97;;
68886;SDS011;55925;51.764;6.402;2023-03-01T11:48:55;10.18;;;4.85;;
68886;SDS011;55925;51.764;6.402;2023-03-01T11:53:59;9.63;;;4.68;;
68886;SDS011;55925;51.764;6.402;2023-03-01T11:59:54;11.60;;;5.35;;
68886;SDS011;55925;51.764;6.402;2023-03-01T12:07:09;10.30;;;4.75;;
68886;SDS011;55925;51.764;6.402;2023-03-01T12:14:43;11.23;;;4.68;;
68886;SDS011;55925;51.764;6.402;2023-03-01T12:22:12;11.25;;;4.90;;
68886;SDS011;55925;51.764;6.402;2023-03-01T12:24:46;8.93;;;4.25;;
68886;SDS011;55925;51.764;6.402;2023-03-01T12:27:23;10.02;;;4.88;;
68886;SDS011;55925;51.764;6.402;2023-03-01T12:32:24;13.13;;;5.88;;
68886;SDS011;55925;51.764;6.402;2023-03-01T12:47:31;9.88;;;4.82;;
68886;SDS011;55925;51.764;6.402;2023-03-01T12:50:02;12.10;;;5.35;;
68886;SDS011;55925;51.764;6.402;2023-03-01T12:52:41;9.80;;;5.82;;
68886;SDS011;55925;51.764;6.402;2023-03-01T12:55:08;9.73;;;5.35;;
68886;SDS011;55925;51.764;6.402;2023-03-01T12:57:43;11.65;;;5.93;;
68886;SDS011;55925;51.764;6.402;2023-03-01T13:02:52;10.38;;;5.40;;
68886;SDS011;55925;51.764;6.402;2023-03-01T13:07:52;10.70;;;5.07;;
68886;SDS011;55925;51.764;6.402;2023-03-01T13:17:47;13.40;;;6.05;;
68886;SDS011;55925;51.764;6.402;2023-03-01T13:20:15;10.25;;;5.05;;
68886;SDS011;55925;51.764;6.402;2023-03-01T13:22:42;10.88;;;4.90;;
68886;SDS011;55925;51.764;6.402;2023-03-01T13:25:12;12.35;;;5.60;;
68886;SDS011;55925;51.764;6.402;2023-03-01T13:27:38;12.13;;;5.00;;
68886;SDS011;55925;51.764;6.402;2023-03-01T13:30:12;10.88;;;5.32;;
68886;SDS011;55925;51.764;6.402;2023-03-01T13:32:51;10.30;;;4.43;;
68886;SDS011;55925;51.764;6.402;2023-03-01T13:37:43;9.80;;;5.05;;
68886;SDS011;55925;51.764;6.402;2023-03-01T13:42:44;12.27;;;5.30;;
68886;SDS011;55925;51.764;6.402;2023-03-01T13:45:15;13.55;;;5.90;;
68886;SDS011;55925;51.764;6.402;2023-03-01T13:47:42;10.75;;;5.13;;
68886;SDS011;55925;51.764;6.402;2023-03-01T13:50:15;10.63;;;4.90;;
68886;SDS011;55925;51.764;6.402;2023-03-01T13:52:44;12.25;;;6.10;;
68886;SDS011;55925;51.764;6.402;2023-03-01T13:57:40;11.88;;;5.03;;
68886;SDS011;55925;51.764;6.402;2023-03-01T14:00:24;14.50;;;6.10;;
68886;SDS011;55925;51.764;6.402;2023-03-01T14:03:01;10.45;;;5.35;;
68886;SDS011;55925;51.764;6.402;2023-03-01T14:05:28;12.70;;;6.20;;
68886;SDS011;55925;51.764;6.402;2023-03-01T14:07:55;10.88;;;5.30;;
68886;SDS011;55925;51.764;6.402;2023-03-01T14:10:21;11.35;;;5.57;;
68886;SDS011;55925;51.764;6.402;2023-03-01T14:12:52;11.13;;;5.30;;
68886;SDS011;55925;51.764;6.402;2023-03-01T14:17:52;10.80;;;5.47;;
68886;SDS011;55925;51.764;6.402;2023-03-01T14:20:25;10.50;;;5.18;;
68886;SDS011;55925;51.764;6.402;2023-03-01T14:22:53;11.48;;;5.18;;
68886;SDS011;55925;51.764;6.402;2023-03-01T14:25:23;12.30;;;5.85;;
68886;SDS011;55925;51.764;6.402;2023-03-01T14:27:57;11.55;;;5.40;;
68886;SDS011;55925;51.764;6.402;2023-03-01T14:30:24;9.00;;;4.70;;
68886;SDS011;55925;51.764;6.402;2023-03-01T14:32:52;9.10;;;4.40;;
68886;SDS011;55925;51.764;6.402;2023-03-01T14:35:22;9.90;;;4.75;;
68886;SDS011;55925;51.764;6.402;2023-03-01T14:37:49;11.07;;;5.20;;
68886;SDS011;55925;51.764;6.402;2023-03-01T14:40:26;12.15;;;5.40;;
68886;SDS011;55925;51.764;6.402;2023-03-01T14:42:52;11.20;;;5.25;;
68886;SDS011;55925;51.764;6.402;2023-03-01T14:45:19;9.75;;;4.68;;
68886;SDS011;55925;51.764;6.402;2023-03-01T14:47:45;9.98;;;5.13;;
68886;SDS011;55925;51.764;6.402;2023-03-01T14:50:17;10.07;;;4.88;;
68886;SDS011;55925;51.764;6.402;2023-03-01T14:52:46;11.13;;;5.60;;
68886;SDS011;55925;51.764;6.402;2023-03-01T14:55:16;11.18;;;5.47;;
68886;SDS011;55925;51.764;6.402;2023-03-01T14:57:44;10.60;;;5.32;;
68886;SDS011;55925;51.764;6.402;2023-03-01T15:00:13;12.63;;;5.32;;
68886;SDS011;55925;51.764;6.402;2023-03-01T15:02:41;11.82;;;5.50;;
68886;SDS011;55925;51.764;6.402;2023-03-01T15:05:08;11.20;;;5.28;;
68886;SDS011;55925;51.764;6.402;2023-03-01T15:07:41;12.68;;;6.05;;
68886;SDS011;55925;51.764;6.402;2023-03-01T15:10:19;12.18;;;5.25;;
68886;SDS011;55925;51.764;6.402;2023-03-01T15:12:46;10.20;;;4.82;;
68886;SDS011;55925;51.764;6.402;2023-03-01T15:17:58;8.88;;;4.20;;
68886;SDS011;55925;51.764;6.402;2023-03-01T15:20:25;9.63;;;4.75;;
68886;SDS011;55925;51.764;6.402;2023-03-01T15:22:54;10.00;;;4.55;;
68886;SDS011;55925;51.764;6.402;2023-03-01T15:25:22;8.75;;;4.15;;
68886;SDS011;55925;51.764;6.402;2023-03-01T15:27:49;9.95;;;5.03;;
68886;SDS011;55925;51.764;6.402;2023-03-01T15:30:26;11.23;;;4.60;;
68886;SDS011;55925;51.764;6.402;2023-03-01T15:35:44;10.88;;;5.30;;
68886;SDS011;55925;51.764;6.402;2023-03-01T15:38:26;11.27;;;4.72;;
68886;SDS011;55925;51.764;6.402;2023-03-01T15:40:53;9.30;;;4.78;;
68886;SDS011;55925;51.764;6.402;2023-03-01T15:43:39;10.25;;;4.75;;
68886;SDS011;55925;51.764;6.402;2023-03-01T15:46:11;8.10;;;4.13;;
68886;SDS011;55925;51.764;6.402;2023-03-01T15:48:38;8.70;;;4.35;;
68886;SDS011;55925;51.764;6.402;2023-03-01T15:51:04;9.05;;;4.05;;
68886;SDS011;55925;51.764;6.402;2023-03-01T15:53:30;8.43;;;3.83;;
68886;SDS011;55925;51.764;6.402;2023-03-01T15:55:56;9.20;;;3.97;;
68886;SDS011;55925;51.764;6.402;2023-03-01T15:58:25;8.52;;;3.67;;
68886;SDS011;55925;51.764;6.402;2023-03-01T16:00:51;8.65;;;4.50;;
68886;SDS011;55925;51.764;6.402;2023-03-01T16:03:21;9.60;;;4.13;;
68886;SDS011;55925;51.764;6.402;2023-03-01T16:05:48;7.63;;;4.20;;
68886;SDS011;55925;51.764;6.402;2023-03-01T16:08:15;8.75;;;4.40;;
68886;SDS011;55925;51.764;6.402;2023-03-01T16:10:42;9.77;;;4.57;;
68886;SDS011;55925;51.764;6.402;2023-03-01T16:13:13;8.60;;;4.28;;
68886;SDS011;55925;51.764;6.402;2023-03-01T16:15:39;11.57;;;4.45;;
68886;SDS011;55925;51.764;6.402;2023-03-01T16:18:05;9.60;;;4.82;;
68886;SDS011;55925;51.764;6.402;2023-03-01T16:20:32;9.57;;;4.53;;
68886;SDS011;55925;51.764;6.402;2023-03-01T16:22:59;10.00;;;4.50;;
68886;SDS011;55925;51.764;6.402;2023-03-01T16:25:25;8.63;;;4.40;;
68886;SDS011;55925;51.764;6.402;2023-03-01T16:27:51;8.68;;;4.50;;
68886;SDS011;55925;51.764;6.402;2023-03-01T16:30:19;9.00;;;3.95;;
68886;SDS011;55925;51.764;6.402;2023-03-01T16:32:45;9.25;;;3.95;;
68886;SDS011;55925;51.764;6.402;2023-03-01T16:35:12;10.45;;;4.53;;
68886;SDS011;55925;51.764;6.402;2023-03-01T16:37:39;8.88;;;4.32;;
68886;SDS011;55925;51.764;6.402;2023-03-01T16:40:06;9.25;;;4.28;;
68886;SDS011;55925;51.764;6.402;2023-03-01T16:42:35;8.35;;;4.25;;
68886;SDS011;55925;51.764;6.402;2023-03-01T16:45:02;7.75;;;4.13;;
68886;SDS011;55925;51.764;6.402;2023-03-01T16:47:28;8.27;;;3.80;;
68886;SDS011;55925;51.764;6.402;2023-03-01T16:49:54;9.68;;;4.57;;
68886;SDS011;55925;51.764;6.402;2023-03-01T16:52:21;9.55;;;4.28;;
68886;SDS011;55925;51.764;6.402;2023-03-01T16:54:47;8.18;;;3.95;;
68886;SDS011;55925;51.764;6.402;2023-03-01T16:57:14;8.73;;;3.92;;
68886;SDS011;55925;51.764;6.402;2023-03-01T16:59:40;14.18;;;6.20;;
68886;SDS011;55925;51.764;6.402;2023-03-01T17:02:06;9.00;;;5.32;;
68886;SDS011;55925;51.764;6.402;2023-03-01T17:04:35;10.25;;;4.90;;
68886;SDS011;55925;51.764;6.402;2023-03-01T17:07:01;10.80;;;5.22;;
68886;SDS011;55925;51.764;6.402;2023-03-01T17:09:27;9.65;;;4.50;;
68886;SDS011;55925;51.764;6.402;2023-03-01T17:11:53;10.52;;;4.25;;
68886;SDS011;55925;51.764;6.402;2023-03-01T17:14:19;10.18;;;3.92;;
68886;SDS011;55925;51.764;6.402;2023-03-01T17:16:45;10.05;;;4.50;;
68886;SDS011;55925;51.764;6.402;2023-03-01T17:19:12;8.43;;;4.22;;
68886;SDS011;55925;51.764;6.402;2023-03-01T17:21:43;9.30;;;4.00;;
68886;SDS011;55925;51.764;6.402;2023-03-01T17:24:09;7.82;;;3.67;;
68886;SDS011;55925;51.764;6.402;2023-03-01T17:26:35;8.02;;;4.55;;
68886;SDS011;55925;51.764;6.402;2023-03-01T17:29:02;10.77;;;5.75;;
68886;SDS011;55925;51.764;6.402;2023-03-01T17:31:29;11.30;;;5.45;;
68886;SDS011;55925;51.764;6.402;2023-03-01T17:33:55;8.20;;;4.20;;
68886;SDS011;55925;51.764;6.402;2023-03-01T17:36:21;11.13;;;5.03;;
68886;SDS011;55925;51.764;6.402;2023-03-01T17:38:47;9.45;;;5.15;;